createdAt,value
2019-04-26T00:00:21.875Z,12.02
2019-04-26T00:01:22.363Z,12.01
2019-04-26T00:02:22.802Z,12.00
2019-04-26T00:03:23.233Z,11.99
2019-04-26T00:04:22.794Z,11.98
2019-04-26T00:05:34.502Z,11.98
2019-04-26T00:06:23.581Z,11.97
2019-04-26T00:07:24.963Z,11.97
2019-04-26T00:08:24.350Z,11.96
2019-04-26T00:09:25.661Z,11.95
2019-04-26T00:10:26.195Z,11.94
2019-04-26T00:11:26.099Z,11.93
2019-04-26T00:12:27.385Z,11.92
2019-04-26T00:13:26.732Z,11.91
2019-04-26T00:14:27.024Z,11.90
2019-04-26T00:15:28.522Z,11.89
2019-04-26T00:16:27.946Z,11.89
2019-04-26T00:17:29.402Z,11.88
2019-04-26T00:18:29.403Z,11.88
2019-04-26T00:19:29.923Z,11.87
2019-04-26T00:20:29.442Z,11.87
2019-04-26T00:21:30.921Z,11.87
2019-04-26T00:22:30.390Z,11.87
2019-04-26T00:23:31.814Z,11.87
2019-04-26T00:24:31.224Z,11.87
2019-04-26T00:25:32.640Z,11.87
2019-04-26T00:26:33.045Z,11.87
2019-04-26T00:27:33.480Z,11.86
2019-04-26T00:28:34.060Z,11.86
2019-04-26T00:29:34.474Z,11.86
2019-04-26T00:30:35.218Z,11.86
2019-04-26T00:31:35.797Z,11.86
2019-04-26T00:32:36.188Z,11.86
2019-04-26T00:32:44.743Z,11.90
2019-04-26T00:33:46.120Z,11.88
2019-04-26T00:34:46.741Z,11.88
2019-04-26T00:35:47.891Z,11.87
2019-04-26T00:36:47.165Z,11.87
2019-04-26T00:37:48.419Z,11.86
2019-04-26T00:38:48.693Z,11.86
2019-04-26T00:39:48.966Z,11.86
2019-04-26T00:40:49.290Z,11.85
2019-04-26T00:41:49.742Z,11.85
2019-04-26T00:42:50.176Z,11.84
2019-04-26T00:43:50.531Z,11.83
2019-04-26T00:44:50.753Z,11.82
2019-04-26T00:45:51.066Z,11.81
2019-04-26T00:46:51.745Z,11.80
2019-04-26T00:47:52.154Z,11.79
2019-04-26T00:48:52.719Z,11.78
2019-04-26T00:49:52.133Z,11.77
2019-04-26T00:50:53.627Z,11.76
2019-04-26T00:51:54.100Z,11.75
2019-04-26T00:52:54.555Z,11.74
2019-04-26T00:53:54.026Z,11.73
2019-04-26T00:54:55.400Z,11.72
2019-04-26T00:55:55.465Z,11.71
2019-04-26T00:56:55.893Z,11.70
2019-04-26T00:57:56.477Z,11.70
2019-04-26T00:58:56.906Z,11.69
2019-04-26T00:59:57.447Z,11.69
2019-04-26T01:00:57.864Z,11.69
2019-04-26T01:01:58.361Z,11.69
2019-04-26T01:02:58.704Z,11.69
2019-04-26T01:03:59.174Z,11.69
2019-04-26T01:04:59.531Z,11.69
2019-04-26T01:06:00.407Z,11.69
2019-04-26T01:06:59.188Z,11.68
2019-04-26T01:08:00.661Z,11.68
2019-04-26T01:09:01.161Z,11.68
2019-04-26T01:10:01.408Z,11.67
2019-04-26T01:11:02.004Z,11.66
2019-04-26T01:12:02.421Z,11.65
2019-04-26T01:13:02.810Z,11.64
2019-04-26T01:14:03.215Z,11.63
2019-04-26T01:15:03.698Z,11.62
2019-04-26T01:16:04.212Z,11.61
2019-04-26T01:17:04.641Z,11.59
2019-04-26T01:18:04.967Z,11.58
2019-04-26T01:19:05.668Z,11.57
2019-04-26T01:20:06.062Z,11.56
2019-04-26T01:20:14.657Z,11.42
2019-04-26T01:21:17.110Z,11.40
2019-04-26T01:22:15.557Z,11.40
2019-04-26T01:23:17.493Z,11.40
2019-04-26T01:24:16.893Z,11.40
2019-04-26T01:25:17.518Z,11.41
2019-04-26T01:26:17.733Z,11.41
2019-04-26T01:27:17.128Z,11.41
2019-04-26T01:28:18.490Z,11.40
2019-04-26T01:29:18.599Z,11.40
2019-04-26T01:30:18.356Z,11.39
2019-04-26T01:31:18.640Z,11.38
2019-04-26T01:32:19.215Z,11.38
2019-04-26T01:33:20.033Z,11.37
2019-04-26T01:34:20.343Z,11.37
2019-04-26T01:35:20.369Z,11.37
2019-04-26T01:36:20.538Z,11.36
2019-04-26T01:37:20.662Z,11.36
2019-04-26T01:38:21.794Z,11.35
2019-04-26T01:39:22.349Z,11.34
2019-04-26T01:40:22.040Z,11.33
2019-04-26T01:41:22.362Z,11.32
2019-04-26T01:42:22.671Z,11.31
2019-04-26T01:43:24.424Z,11.30
2019-04-26T01:44:24.558Z,11.29
2019-04-26T01:45:23.711Z,11.28
2019-04-26T01:46:25.071Z,11.27
2019-04-26T01:47:26.254Z,11.26
2019-04-26T01:48:25.070Z,11.25
2019-04-26T01:49:26.189Z,11.24
2019-04-26T01:50:25.751Z,11.23
2019-04-26T01:51:27.133Z,11.22
2019-04-26T01:52:27.782Z,11.22
2019-04-26T01:53:28.795Z,11.21
2019-04-26T01:54:27.830Z,11.21
2019-04-26T01:55:29.073Z,11.21
2019-04-26T01:56:29.210Z,11.21
2019-04-26T01:57:29.437Z,11.20
2019-04-26T01:58:29.335Z,11.21
2019-04-26T01:59:29.527Z,11.21
2019-04-26T02:00:29.583Z,11.21
2019-04-26T02:01:29.850Z,11.22
2019-04-26T02:02:32.001Z,11.22
2019-04-26T02:03:30.615Z,11.23
2019-04-26T02:04:32.070Z,11.24
2019-04-26T02:05:32.017Z,11.25
2019-04-26T02:06:34.910Z,11.25
2019-04-26T02:07:32.522Z,11.26
2019-04-26T02:08:32.483Z,11.27
2019-04-26T02:09:32.793Z,11.27
2019-04-26T02:10:32.940Z,11.28
2019-04-26T02:11:34.363Z,11.29
2019-04-26T02:12:34.763Z,11.29
2019-04-26T02:13:35.139Z,11.30
2019-04-26T02:14:35.547Z,11.29
2019-04-26T02:15:35.847Z,11.28
2019-04-26T02:16:36.155Z,11.27
2019-04-26T02:17:36.389Z,11.26
2019-04-26T02:18:36.775Z,11.25
2019-04-26T02:19:37.156Z,11.25
2019-04-26T02:20:37.431Z,11.24
2019-04-26T02:21:37.813Z,11.23
2019-04-26T02:22:38.478Z,11.23
2019-04-26T02:23:38.154Z,11.22
2019-04-26T02:24:39.418Z,11.22
2019-04-26T02:25:39.755Z,11.21
2019-04-26T02:26:40.104Z,11.20
2019-04-26T02:27:40.594Z,11.20
2019-04-26T02:28:41.236Z,11.20
2019-04-26T02:29:41.693Z,11.19
2019-04-26T02:30:42.246Z,11.19
2019-04-26T02:31:42.717Z,11.19
2019-04-26T02:32:43.072Z,11.19
2019-04-26T02:33:43.607Z,11.19
2019-04-26T02:34:44.067Z,11.19
2019-04-26T02:34:52.599Z,11.18
2019-04-26T02:35:53.945Z,11.17
2019-04-26T02:36:58.513Z,11.17
2019-04-26T02:37:53.736Z,11.17
2019-04-26T02:38:55.405Z,11.17
2019-04-26T02:39:55.696Z,11.17
2019-04-26T02:40:55.958Z,11.17
2019-04-26T02:41:56.245Z,11.17
2019-04-26T02:42:55.649Z,11.17
2019-04-26T02:43:56.918Z,11.17
2019-04-26T02:44:57.505Z,11.17
2019-04-26T02:45:58.058Z,11.17
2019-04-26T02:46:58.384Z,11.17
2019-04-26T02:47:58.844Z,11.17
2019-04-26T02:48:59.450Z,11.16
2019-04-26T02:49:59.742Z,11.16
2019-04-26T02:51:00.156Z,11.16
2019-04-26T02:52:00.527Z,11.15
2019-04-26T02:53:00.930Z,11.15
2019-04-26T02:54:01.407Z,11.15
2019-04-26T02:55:01.848Z,11.15
2019-04-26T02:56:02.772Z,11.15
2019-04-26T02:57:03.211Z,11.14
2019-04-26T02:58:03.566Z,11.13
2019-04-26T02:59:03.973Z,11.13
2019-04-26T03:00:04.370Z,11.11
2019-04-26T03:01:04.707Z,11.10
2019-04-26T03:02:05.052Z,11.09
2019-04-26T03:03:05.311Z,11.07
2019-04-26T03:04:05.629Z,11.06
2019-04-26T03:05:06.426Z,11.05
2019-04-26T03:06:06.760Z,11.04
2019-04-26T03:07:07.384Z,11.02
2019-04-26T03:08:07.851Z,11.01
2019-04-26T03:09:08.212Z,11.00
2019-04-26T03:10:08.770Z,10.98
2019-04-26T03:11:07.763Z,10.97
2019-04-26T03:12:09.202Z,10.96
2019-04-26T03:13:09.580Z,10.94
2019-04-26T03:14:09.993Z,10.92
2019-04-26T03:15:14.120Z,10.91
2019-04-26T03:16:09.875Z,10.89
2019-04-26T03:17:11.272Z,10.87
2019-04-26T03:18:11.702Z,10.85
2019-04-26T03:19:12.131Z,10.82
2019-04-26T03:20:12.451Z,10.80
2019-04-26T03:21:13.047Z,10.77
2019-04-26T03:21:21.570Z,10.39
2019-04-26T03:22:22.860Z,10.36
2019-04-26T03:23:23.224Z,10.35
2019-04-26T03:24:23.643Z,10.35
2019-04-26T03:25:23.890Z,10.35
2019-04-26T03:26:24.208Z,10.34
2019-04-26T03:27:24.560Z,10.34
2019-04-26T03:28:25.142Z,10.33
2019-04-26T03:29:24.428Z,10.33
2019-04-26T03:30:25.941Z,10.33
2019-04-26T03:31:25.352Z,10.33
2019-04-26T03:32:26.754Z,10.33
2019-04-26T03:33:27.161Z,10.33
2019-04-26T03:34:26.497Z,10.33
2019-04-26T03:35:27.889Z,10.33
2019-04-26T03:36:28.151Z,10.33
2019-04-26T03:37:28.498Z,10.33
2019-04-26T03:38:29.126Z,10.32
2019-04-26T03:39:29.520Z,10.32
2019-04-26T03:40:29.905Z,10.31
2019-04-26T03:41:30.164Z,10.31
2019-04-26T03:42:30.606Z,10.31
2019-04-26T03:43:30.843Z,10.31
2019-04-26T03:44:31.202Z,10.30
2019-04-26T03:45:30.429Z,10.30
2019-04-26T03:46:31.813Z,10.30
2019-04-26T03:47:30.995Z,10.29
2019-04-26T03:48:33.929Z,10.29
2019-04-26T03:49:31.843Z,10.29
2019-04-26T03:50:35.242Z,10.29
2019-04-26T03:51:33.808Z,10.29
2019-04-26T03:52:35.334Z,10.29
2019-04-26T03:53:35.464Z,10.28
2019-04-26T03:55:54.648Z,10.28
2019-04-26T03:56:55.165Z,10.25
2019-04-26T03:57:56.516Z,10.25
2019-04-26T03:58:56.780Z,10.25
2019-04-26T03:59:57.323Z,10.25
2019-04-26T04:00:57.663Z,10.25
2019-04-26T04:01:58.109Z,10.25
2019-04-26T04:02:58.657Z,10.25
2019-04-26T04:03:58.988Z,10.25
2019-04-26T04:04:59.269Z,10.24
2019-04-26T04:05:59.715Z,10.24
2019-04-26T04:07:04.724Z,10.24
2019-04-26T04:07:59.698Z,10.23
2019-04-26T04:09:01.148Z,10.22
2019-04-26T04:10:01.657Z,10.21
2019-04-26T04:11:02.109Z,10.20
2019-04-26T04:12:10.818Z,10.18
2019-04-26T04:13:01.943Z,10.17
2019-04-26T04:14:03.456Z,10.16
2019-04-26T04:15:02.657Z,10.14
2019-04-26T04:16:02.919Z,10.12
2019-04-26T04:17:04.327Z,10.11
2019-04-26T04:18:04.624Z,10.09
2019-04-26T04:19:04.899Z,10.08
2019-04-26T04:20:05.269Z,10.07
2019-04-26T04:21:05.628Z,10.07
2019-04-26T04:22:05.120Z,10.06
2019-04-26T04:23:06.461Z,10.04
2019-04-26T04:24:06.708Z,10.04
2019-04-26T04:25:07.024Z,10.03
2019-04-26T04:26:07.518Z,10.03
2019-04-26T04:27:07.909Z,10.02
2019-04-26T04:28:08.360Z,10.02
2019-04-26T04:29:08.708Z,10.01
2019-04-26T04:30:09.123Z,10.01
2019-04-26T04:31:09.484Z,10.01
2019-04-26T04:32:10.192Z,10.00
2019-04-26T04:33:09.932Z,9.99
2019-04-26T04:34:11.438Z,9.99
2019-04-26T04:35:11.954Z,9.98
2019-04-26T04:36:12.410Z,9.96
2019-04-26T04:37:12.661Z,9.95
2019-04-26T04:38:12.961Z,9.94
2019-04-26T04:39:13.495Z,9.93
2019-04-26T04:40:12.784Z,9.93
2019-04-26T04:41:14.065Z,9.92
2019-04-26T04:42:14.447Z,9.90
2019-04-26T04:42:22.990Z,9.79
2019-04-26T04:43:24.506Z,9.77
2019-04-26T04:44:23.760Z,9.77
2019-04-26T04:45:24.025Z,9.77
2019-04-26T04:46:25.611Z,9.77
2019-04-26T04:47:25.801Z,9.77
2019-04-26T04:48:25.438Z,9.77
2019-04-26T04:49:26.887Z,9.77
2019-04-26T04:50:27.256Z,9.77
2019-04-26T04:51:27.801Z,9.77
2019-04-26T04:52:28.294Z,9.77
2019-04-26T04:53:28.753Z,9.77
2019-04-26T04:54:29.114Z,9.77
2019-04-26T04:55:29.485Z,9.77
2019-04-26T04:56:29.755Z,9.77
2019-04-26T04:57:30.380Z,9.77
2019-04-26T04:58:29.680Z,9.77
2019-04-26T04:59:30.958Z,9.77
2019-04-26T05:00:31.262Z,9.77
2019-04-26T05:01:32.017Z,9.77
2019-04-26T05:02:31.385Z,9.77
2019-04-26T05:03:31.705Z,9.77
2019-04-26T05:04:33.015Z,9.76
2019-04-26T05:05:33.242Z,9.76
2019-04-26T05:06:33.747Z,9.77
2019-04-26T05:07:34.050Z,9.77
2019-04-26T05:08:34.449Z,9.77
2019-04-26T05:09:34.762Z,9.77
2019-04-26T05:10:35.209Z,9.78
2019-04-26T05:11:35.554Z,9.78
2019-04-26T05:12:34.869Z,9.79
2019-04-26T05:13:36.160Z,9.80
2019-04-26T05:14:36.539Z,9.81
2019-04-26T05:15:37.054Z,9.82
2019-04-26T05:16:37.388Z,9.82
2019-04-26T05:17:37.742Z,9.83
2019-04-26T05:18:38.061Z,9.84
2019-04-26T05:19:38.357Z,9.84
2019-04-26T05:20:38.684Z,9.85
2019-04-26T05:21:39.111Z,9.85
2019-04-26T05:22:39.390Z,9.86
2019-04-26T05:23:39.668Z,9.86
2019-04-26T05:24:40.094Z,9.87
2019-04-26T05:25:40.592Z,9.88
2019-04-26T05:26:39.697Z,9.89
2019-04-26T05:27:40.969Z,9.90
2019-04-26T05:28:41.259Z,9.90
2019-04-26T05:29:41.743Z,9.91
2019-04-26T05:30:42.593Z,9.92
2019-04-26T05:31:45.818Z,9.92
2019-04-26T05:32:42.481Z,9.92
2019-04-26T05:33:43.831Z,9.93
2019-04-26T05:33:52.553Z,10.08
2019-04-26T05:34:52.915Z,10.06
2019-04-26T05:35:53.230Z,10.06
2019-04-26T05:36:56.807Z,10.06
2019-04-26T05:37:55.179Z,10.06
2019-04-26T05:38:55.365Z,10.06
2019-04-26T05:39:55.318Z,10.06
2019-04-26T05:40:55.643Z,10.05
2019-04-26T05:41:55.717Z,10.05
2019-04-26T05:42:55.951Z,10.05
2019-04-26T05:43:58.006Z,10.04
2019-04-26T05:44:56.792Z,10.04
2019-04-26T05:45:58.084Z,10.04
2019-04-26T05:46:57.900Z,10.03
2019-04-26T05:48:08.236Z,10.03
2019-04-26T05:48:58.498Z,10.03
2019-04-26T05:49:59.833Z,10.02
2019-04-26T05:51:00.307Z,10.02
2019-04-26T05:52:02.063Z,10.01
2019-04-26T05:53:00.365Z,10.00
2019-04-26T05:54:01.730Z,9.99
2019-04-26T05:55:02.693Z,9.98
2019-04-26T05:56:02.509Z,9.96
2019-04-26T05:57:02.659Z,9.95
2019-04-26T05:58:02.902Z,9.94
2019-04-26T05:59:03.099Z,9.93
2019-04-26T06:00:03.026Z,9.92
2019-04-26T06:01:04.111Z,9.91
2019-04-26T06:02:04.649Z,9.90
2019-04-26T06:03:05.439Z,9.89
2019-04-26T06:04:06.109Z,9.88
2019-04-26T06:05:06.266Z,9.88
2019-04-26T06:06:06.849Z,9.87
2019-04-26T06:07:07.329Z,9.86
2019-04-26T06:08:07.826Z,9.85
2019-04-26T06:09:08.257Z,9.84
2019-04-26T06:10:08.681Z,9.83
2019-04-26T06:11:09.306Z,9.82
2019-04-26T06:12:12.393Z,9.81
2019-04-26T06:13:09.248Z,9.81
2019-04-26T06:14:11.164Z,9.80
2019-04-26T06:15:11.799Z,9.79
2019-04-26T06:16:12.204Z,9.78
2019-04-26T06:17:12.959Z,9.78
2019-04-26T06:18:13.668Z,9.78
2019-04-26T06:19:14.247Z,9.77
2019-04-26T06:20:22.654Z,9.76
2019-04-26T06:21:14.567Z,9.76
2019-04-26T06:22:16.058Z,9.75
2019-04-26T06:23:16.595Z,9.75
2019-04-26T06:24:17.186Z,9.74
2019-04-26T06:25:17.599Z,9.73
2019-04-26T06:26:18.296Z,9.73
2019-04-26T06:27:18.791Z,9.72
2019-04-26T06:28:19.296Z,9.71
2019-04-26T06:29:19.963Z,9.70
2019-04-26T06:30:20.490Z,9.70
2019-04-26T06:31:21.059Z,9.70
2019-04-26T06:32:21.761Z,9.69
2019-04-26T06:33:21.307Z,9.69
2019-04-26T06:34:22.841Z,9.69
2019-04-26T06:34:31.398Z,9.74
2019-04-26T06:35:33.149Z,9.72
2019-04-26T06:36:33.791Z,9.72
2019-04-26T06:37:34.302Z,9.72
2019-04-26T06:38:43.739Z,9.72
2019-04-26T06:39:34.214Z,9.72
2019-04-26T06:40:41.793Z,9.72
2019-04-26T06:41:35.138Z,9.72
2019-04-26T06:42:35.738Z,9.72
2019-04-26T06:43:37.343Z,9.72
2019-04-26T06:44:37.774Z,9.72
2019-04-26T06:45:38.277Z,9.72
2019-04-26T06:46:38.757Z,9.73
2019-04-26T06:47:39.213Z,9.73
2019-04-26T06:48:39.715Z,9.74
2019-04-26T06:49:40.335Z,9.75
2019-04-26T06:50:40.856Z,9.76
2019-04-26T06:51:41.430Z,9.77
2019-04-26T06:52:42.037Z,9.78
2019-04-26T06:53:42.520Z,9.79
2019-04-26T06:54:43.068Z,9.80
2019-04-26T06:55:43.480Z,9.81
2019-04-26T06:56:44.203Z,9.82
2019-04-26T06:57:44.926Z,9.84
2019-04-26T06:58:45.618Z,9.85
2019-04-26T06:59:45.994Z,9.87
2019-04-26T07:00:46.895Z,9.87
2019-04-26T07:01:47.421Z,9.88
2019-04-26T07:02:47.998Z,9.90
2019-04-26T07:03:48.398Z,9.91
2019-04-26T07:04:48.881Z,9.92
2019-04-26T07:05:49.436Z,9.93
2019-04-26T07:06:49.894Z,9.94
2019-04-26T07:07:49.493Z,9.95
2019-04-26T07:08:57.696Z,9.95
2019-04-26T07:09:50.617Z,9.96
2019-04-26T07:10:52.168Z,9.97
2019-04-26T07:11:51.114Z,9.99
2019-04-26T07:12:52.748Z,10.00
2019-04-26T07:13:53.247Z,10.01
2019-04-26T07:14:54.128Z,10.02
2019-04-26T07:15:54.663Z,10.04
2019-04-26T07:16:55.208Z,10.05
2019-04-26T07:17:55.579Z,10.07
2019-04-26T07:18:56.238Z,10.09
2019-04-26T07:19:58.523Z,10.10
2019-04-26T07:20:56.228Z,10.12
2019-04-26T07:21:57.770Z,10.14
2019-04-26T07:22:58.211Z,10.15
2019-04-26T07:23:58.573Z,10.16
2019-04-26T07:24:07.114Z,10.26
2019-04-26T07:25:08.978Z,10.24
2019-04-26T07:26:08.192Z,10.24
2019-04-26T07:27:09.403Z,10.24
2019-04-26T07:28:12.218Z,10.24
2019-04-26T07:29:11.273Z,10.24
2019-04-26T07:30:12.029Z,10.24
2019-04-26T07:31:11.341Z,10.24
2019-04-26T07:32:11.792Z,10.24
2019-04-26T07:33:13.260Z,10.24
2019-04-26T07:34:13.843Z,10.24
2019-04-26T07:35:14.341Z,10.25
2019-04-26T07:36:14.817Z,10.25
2019-04-26T07:37:15.194Z,10.25
2019-04-26T07:38:15.567Z,10.26
2019-04-26T07:39:20.371Z,10.26
2019-04-26T07:40:15.457Z,10.27
2019-04-26T07:41:16.897Z,10.28
2019-04-26T07:42:17.313Z,10.29
2019-04-26T07:43:17.902Z,10.30
2019-04-26T07:44:18.106Z,10.30
2019-04-26T07:45:18.693Z,10.30
2019-04-26T07:46:19.477Z,10.30
2019-04-26T07:47:19.957Z,10.30
2019-04-26T07:48:20.581Z,10.29
2019-04-26T07:49:21.059Z,10.28
2019-04-26T07:50:21.607Z,10.28
2019-04-26T07:51:22.192Z,10.27
2019-04-26T07:52:22.610Z,10.27
2019-04-26T07:53:23.067Z,10.26
2019-04-26T07:54:23.488Z,10.26
2019-04-26T07:55:24.319Z,10.25
2019-04-26T07:56:24.030Z,10.25
2019-04-26T07:57:24.468Z,10.24
2019-04-26T07:58:25.865Z,10.23
2019-04-26T07:59:26.406Z,10.23
2019-04-26T08:00:26.852Z,10.23
2019-04-26T08:01:26.930Z,10.22
2019-04-26T08:02:27.436Z,10.22
2019-04-26T08:03:28.313Z,10.21
2019-04-26T08:04:29.606Z,10.21
2019-04-26T08:05:28.380Z,10.20
2019-04-26T08:06:29.979Z,10.19
2019-04-26T08:07:30.685Z,10.19
2019-04-26T08:08:31.299Z,10.18
2019-04-26T08:09:31.739Z,10.17
2019-04-26T08:10:32.389Z,10.17
2019-04-26T08:11:32.989Z,10.17
2019-04-26T08:12:33.427Z,10.17
2019-04-26T08:13:34.082Z,10.17
2019-04-26T08:14:34.619Z,10.17
2019-04-26T08:14:43.181Z,10.34
2019-04-26T08:15:44.662Z,10.32
2019-04-26T08:16:45.255Z,10.32
2019-04-26T08:17:45.658Z,10.32
2019-04-26T08:18:46.122Z,10.32
2019-04-26T08:19:46.618Z,10.33
2019-04-26T08:20:48.342Z,10.33
2019-04-26T08:21:47.966Z,10.33
2019-04-26T08:22:46.906Z,10.34
2019-04-26T08:23:48.327Z,10.34
2019-04-26T08:24:48.720Z,10.34
2019-04-26T08:25:49.161Z,10.34
2019-04-26T08:26:49.911Z,10.34
2019-04-26T08:27:49.928Z,10.34
2019-04-26T08:28:50.394Z,10.34
2019-04-26T08:29:50.906Z,10.34
2019-04-26T08:30:51.324Z,10.35
2019-04-26T08:31:53.627Z,10.36
2019-04-26T08:32:52.259Z,10.38
2019-04-26T08:33:52.344Z,10.39
2019-04-26T08:34:54.288Z,10.39
2019-04-26T08:35:53.501Z,10.40
2019-04-26T08:36:57.272Z,10.41
2019-04-26T08:37:54.739Z,10.42
2019-04-26T08:38:57.177Z,10.43
2019-04-26T08:39:56.772Z,10.43
2019-04-26T08:41:00.518Z,10.44
2019-04-26T08:41:57.390Z,10.45
2019-04-26T08:42:59.072Z,10.46
2019-04-26T08:44:03.254Z,10.47
2019-04-26T08:44:59.349Z,10.48
2019-04-26T08:46:03.073Z,10.49
2019-04-26T08:47:00.927Z,10.49
2019-04-26T08:48:01.334Z,10.51
2019-04-26T08:49:06.490Z,10.52
2019-04-26T08:50:02.558Z,10.53
2019-04-26T08:51:04.165Z,10.55
2019-04-26T08:52:13.909Z,10.56
2019-04-26T08:53:04.315Z,10.58
2019-04-26T08:54:06.059Z,10.61
2019-04-26T08:55:06.751Z,10.63
2019-04-26T08:56:06.363Z,10.65
2019-04-26T08:57:06.903Z,10.67
2019-04-26T08:58:08.270Z,10.69
2019-04-26T08:59:07.662Z,10.70
2019-04-26T09:00:09.530Z,10.72
2019-04-26T09:01:10.237Z,10.74
2019-04-26T09:02:11.059Z,10.75
2019-04-26T09:03:12.041Z,10.77
2019-04-26T09:04:10.841Z,10.80
2019-04-26T09:05:12.358Z,10.82
2019-04-26T09:06:12.870Z,10.83
2019-04-26T09:07:13.148Z,10.84
2019-04-26T09:08:13.277Z,10.86
2019-04-26T09:09:14.416Z,10.87
2019-04-26T09:10:13.552Z,10.89
2019-04-26T09:11:25.638Z,10.90
2019-04-26T09:12:22.868Z,10.91
2019-04-26T09:13:15.359Z,10.92
2019-04-26T09:13:23.922Z,11.22
2019-04-26T09:14:25.318Z,11.21
2019-04-26T09:15:26.074Z,11.21
2019-04-26T09:16:25.591Z,11.20
2019-04-26T09:17:27.726Z,11.20
2019-04-26T09:18:27.890Z,11.20
2019-04-26T09:19:30.588Z,11.20
2019-04-26T09:20:29.876Z,11.20
2019-04-26T09:21:28.978Z,11.20
2019-04-26T09:22:29.368Z,11.20
2019-04-26T09:23:39.944Z,11.20
2019-04-26T09:24:30.406Z,11.20
2019-04-26T09:25:34.458Z,11.20
2019-04-26T09:26:31.776Z,11.20
2019-04-26T09:27:32.177Z,11.20
2019-04-26T09:28:34.613Z,11.21
2019-04-26T09:29:34.026Z,11.21
2019-04-26T09:30:38.202Z,11.22
2019-04-26T09:31:34.045Z,11.22
2019-04-26T09:32:35.470Z,11.23
2019-04-26T09:33:37.431Z,11.23
2019-04-26T09:34:35.586Z,11.23
2019-04-26T09:35:37.070Z,11.22
2019-04-26T09:36:37.591Z,11.22
2019-04-26T09:37:38.063Z,11.22
2019-04-26T09:38:38.625Z,11.21
2019-04-26T09:39:41.553Z,11.21
2019-04-26T09:40:38.570Z,11.21
2019-04-26T09:41:40.421Z,11.20
2019-04-26T09:42:41.072Z,11.20
2019-04-26T09:43:40.443Z,11.21
2019-04-26T09:44:43.018Z,11.21
2019-04-26T09:45:41.350Z,11.21
2019-04-26T09:46:44.383Z,11.20
2019-04-26T09:47:42.370Z,11.20
2019-04-26T09:48:44.106Z,11.21
2019-04-26T09:49:44.070Z,11.21
2019-04-26T09:50:44.724Z,11.22
2019-04-26T09:51:46.247Z,11.23
2019-04-26T09:52:45.585Z,11.24
2019-04-26T09:53:47.057Z,11.26
2019-04-26T09:54:47.493Z,11.27
2019-04-26T09:55:47.912Z,11.29
2019-04-26T09:56:48.481Z,11.31
2019-04-26T09:57:49.013Z,11.33
2019-04-26T09:58:49.645Z,11.34
2019-04-26T09:59:50.164Z,11.35
2019-04-26T10:00:50.620Z,11.37
2019-04-26T10:01:51.081Z,11.38
2019-04-26T10:02:51.537Z,11.40
2019-04-26T10:03:52.337Z,11.43
2019-04-26T10:04:53.348Z,11.46
2019-04-26T10:05:55.881Z,11.49
2019-04-26T10:06:53.363Z,11.53
2019-04-26T10:07:54.803Z,11.57
2019-04-26T10:08:55.377Z,11.62
2019-04-26T10:09:56.481Z,11.67
2019-04-26T10:10:55.251Z,11.71
2019-04-26T10:11:56.821Z,11.77
2019-04-26T10:12:57.219Z,11.82
2019-04-26T10:13:05.780Z,12.62
2019-04-26T10:14:07.299Z,12.62
2019-04-26T10:15:07.344Z,12.62
2019-04-26T10:16:07.897Z,12.63
2019-04-26T10:17:11.594Z,12.64
2019-04-26T10:18:08.302Z,12.65
2019-04-26T10:19:08.578Z,12.66
2019-04-26T10:20:10.033Z,12.68
2019-04-26T10:21:10.880Z,12.71
2019-04-26T10:22:11.547Z,12.73
2019-04-26T10:23:11.995Z,12.76
2019-04-26T10:24:12.431Z,12.78
2019-04-26T10:25:16.570Z,12.80
2019-04-26T10:26:12.441Z,12.81
2019-04-26T10:27:14.019Z,12.82
2019-04-26T10:28:15.988Z,12.81
2019-04-26T10:29:13.755Z,12.80
2019-04-26T10:30:15.191Z,12.80
2019-04-26T10:31:17.231Z,12.80
2019-04-26T10:32:14.934Z,12.80
2019-04-26T10:33:16.647Z,12.80
2019-04-26T10:34:17.003Z,12.80
2019-04-26T10:35:17.503Z,12.81
2019-04-26T10:36:16.527Z,12.81
2019-04-26T10:37:18.024Z,12.80
2019-04-26T10:38:19.317Z,12.80
2019-04-26T10:39:18.349Z,12.79
2019-04-26T10:40:20.277Z,12.79
2019-04-26T10:41:20.840Z,12.79
2019-04-26T10:42:21.296Z,12.79
2019-04-26T10:43:21.855Z,12.80
2019-04-26T10:44:22.362Z,12.81
2019-04-26T10:45:23.232Z,12.82
2019-04-26T10:46:24.569Z,12.84
2019-04-26T10:47:23.138Z,12.86
2019-04-26T10:48:24.623Z,12.86
2019-04-26T10:49:26.063Z,12.87
2019-04-26T10:50:24.502Z,12.87
2019-04-26T10:51:25.886Z,12.87
2019-04-26T10:52:26.390Z,12.88
2019-04-26T10:53:30.005Z,12.89
2019-04-26T10:54:26.239Z,12.91
2019-04-26T10:55:27.760Z,12.92
2019-04-26T10:56:28.362Z,12.94
2019-04-26T10:57:28.928Z,12.93
2019-04-26T10:58:31.852Z,12.94
2019-04-26T10:59:31.662Z,12.95
2019-04-26T11:00:29.679Z,12.96
2019-04-26T11:01:30.181Z,12.97
2019-04-26T11:02:31.819Z,12.98
2019-04-26T11:03:34.946Z,12.99
2019-04-26T11:04:32.025Z,12.99
2019-04-26T11:05:33.051Z,13.00
2019-04-26T11:06:33.777Z,13.01
2019-04-26T11:07:34.380Z,13.02
2019-04-26T11:07:43.437Z,13.34
2019-04-26T11:08:44.773Z,13.32
2019-04-26T11:09:45.360Z,13.32
2019-04-26T11:10:48.922Z,13.33
2019-04-26T11:11:45.218Z,13.33
2019-04-26T11:12:46.873Z,13.32
2019-04-26T11:13:47.493Z,13.31
2019-04-26T11:14:48.194Z,13.30
2019-04-26T11:15:47.537Z,13.29
2019-04-26T11:16:49.179Z,13.30
2019-04-26T11:17:50.130Z,13.30
2019-04-26T11:18:49.141Z,13.31
2019-04-26T11:19:50.253Z,13.31
2019-04-26T11:20:51.079Z,13.31
2019-04-26T11:21:54.725Z,13.31
2019-04-26T11:22:51.523Z,13.31
2019-04-26T11:23:53.235Z,13.31
2019-04-26T11:24:54.805Z,13.31
2019-04-26T11:25:53.473Z,13.32
2019-04-26T11:26:53.868Z,13.33
2019-04-26T11:27:55.219Z,13.35
2019-04-26T11:28:57.151Z,13.37
2019-04-26T11:29:55.268Z,13.39
2019-04-26T11:30:57.371Z,13.41
2019-04-26T11:31:58.525Z,13.44
2019-04-26T11:32:56.506Z,13.46
2019-04-26T11:34:05.109Z,13.46
2019-04-26T11:34:58.793Z,13.46
2019-04-26T11:35:58.614Z,13.47
2019-04-26T11:37:00.198Z,13.47
2019-04-26T11:38:00.894Z,13.48
2019-04-26T11:39:01.307Z,13.49
2019-04-26T11:40:00.923Z,13.48
2019-04-26T11:41:06.114Z,13.49
2019-04-26T11:42:01.764Z,13.49
2019-04-26T11:43:03.574Z,13.50
2019-04-26T11:44:03.926Z,13.50
2019-04-26T11:45:06.320Z,13.49
2019-04-26T11:46:04.898Z,13.49
2019-04-26T11:47:07.807Z,13.49
2019-04-26T11:48:04.588Z,13.49
2019-04-26T11:49:07.196Z,13.49
2019-04-26T11:50:05.592Z,13.49
2019-04-26T11:51:06.497Z,13.50
2019-04-26T11:52:07.997Z,13.50
2019-04-26T11:53:10.115Z,13.51
2019-04-26T11:54:08.011Z,13.51
2019-04-26T11:55:09.582Z,13.52
2019-04-26T11:56:10.240Z,13.53
2019-04-26T11:57:11.965Z,13.54
2019-04-26T11:58:10.654Z,13.55
2019-04-26T11:59:12.679Z,13.57
2019-04-26T12:00:13.184Z,13.58
2019-04-26T12:01:13.725Z,13.60
2019-04-26T12:02:16.190Z,13.61
2019-04-26T12:03:13.972Z,13.63
2019-04-26T12:04:15.743Z,13.64
2019-04-26T12:05:16.370Z,13.67
2019-04-26T12:06:17.166Z,13.70
2019-04-26T12:07:17.743Z,13.73
2019-04-26T12:08:18.195Z,13.75
2019-04-26T12:09:18.684Z,13.78
2019-04-26T12:10:19.116Z,13.81
2019-04-26T12:10:33.690Z,14.34
2019-04-26T12:11:35.387Z,14.27
2019-04-26T12:12:34.805Z,14.27
2019-04-26T12:13:36.413Z,14.26
2019-04-26T12:14:35.875Z,14.24
2019-04-26T12:15:39.078Z,14.22
2019-04-26T12:16:48.094Z,14.20
2019-04-26T12:17:38.003Z,14.19
2019-04-26T12:18:40.310Z,14.18
2019-04-26T12:19:38.990Z,14.16
2019-04-26T12:20:40.630Z,14.14
2019-04-26T12:21:39.814Z,14.11
2019-04-26T12:22:43.311Z,14.08
2019-04-26T12:23:41.317Z,14.05
2019-04-26T12:24:43.181Z,14.01
2019-04-26T12:25:48.053Z,13.96
2019-04-26T12:26:46.235Z,13.93
2019-04-26T12:27:44.641Z,13.90
2019-04-26T12:28:45.290Z,13.88
2019-04-26T12:29:48.285Z,13.86
2019-04-26T12:30:46.844Z,13.85
2019-04-26T12:31:48.359Z,13.85
2019-04-26T12:32:50.047Z,13.85
2019-04-26T12:33:48.523Z,13.85
2019-04-26T12:34:50.150Z,13.87
2019-04-26T12:35:56.802Z,13.88
2019-04-26T12:36:50.358Z,13.88
2019-04-26T12:37:54.750Z,13.89
2019-04-26T12:38:51.734Z,13.91
2019-04-26T12:39:53.332Z,13.92
2019-04-26T12:40:54.083Z,13.95
2019-04-26T12:41:53.596Z,13.97
2019-04-26T12:42:55.033Z,13.99
2019-04-26T12:43:59.673Z,14.01
2019-04-26T12:44:55.132Z,14.04
2019-04-26T12:45:56.766Z,14.05
2019-04-26T12:46:59.386Z,14.06
2019-04-26T12:47:56.858Z,14.06
2019-04-26T12:48:58.401Z,14.06
2019-04-26T12:50:00.449Z,14.06
2019-04-26T12:50:58.300Z,14.07
2019-04-26T12:51:59.937Z,14.07
2019-04-26T12:53:00.504Z,14.07
2019-04-26T12:54:03.700Z,14.07